createdAt,value
2017-08-02T00:00:02.925Z,23.3
2017-08-02T00:01:01.940Z,23.3
2017-08-02T00:01:32.461Z,23.3
2017-08-02T00:02:02.749Z,23.3
2017-08-02T00:02:33.268Z,23.3
2017-08-02T00:03:03.797Z,23.3
2017-08-02T00:03:34.309Z,23.3
2017-08-02T00:05:00.071Z,23.3
2017-08-02T00:05:59.156Z,23.3
2017-08-02T00:06:58.858Z,23.3
2017-08-02T00:07:58.073Z,23.3
2017-08-02T00:08:57.548Z,23.3
2017-08-02T00:09:57.260Z,23.3
2017-08-02T00:10:56.465Z,23.2
2017-08-02T00:11:56.176Z,23.2
2017-08-02T00:12:55.263Z,23.3
2017-08-02T00:13:54.989Z,23.3
2017-08-02T00:14:54.206Z,23.3
2017-08-02T00:15:53.788Z,23.3
2017-08-02T00:16:23.952Z,23.3
2017-08-02T00:17:52.347Z,23.2
2017-08-02T00:18:52.051Z,23.2
2017-08-02T00:19:51.136Z,23.1
2017-08-02T00:20:50.616Z,23.1
2017-08-02T00:21:50.314Z,23.1
2017-08-02T00:22:49.394Z,23.1
2017-08-02T00:23:48.866Z,23.1
2017-08-02T00:24:48.344Z,23.1
2017-08-02T00:25:18.731Z,23.1
2017-08-02T00:26:47.141Z,23
2017-08-02T00:27:46.851Z,23.1
2017-08-02T00:28:45.812Z,23
2017-08-02T00:29:45.517Z,23
2017-08-02T00:30:45.118Z,23.1
2017-08-02T00:31:43.979Z,23.1
2017-08-02T00:32:43.687Z,23.1
2017-08-02T00:33:43.394Z,23.1
2017-08-02T00:34:42.602Z,23
2017-08-02T00:35:41.572Z,23
2017-08-02T00:36:41.291Z,23
2017-08-02T00:37:40.882Z,23
2017-08-02T00:39:39.857Z,23
2017-08-02T00:40:39.095Z,23
2017-08-02T00:41:38.809Z,22.9
2017-08-02T00:42:37.790Z,22.9
2017-08-02T00:43:37.389Z,22.9
2017-08-02T00:44:36.740Z,22.8
2017-08-02T00:46:35.833Z,22.8
2017-08-02T00:47:34.919Z,22.8
2017-08-02T00:48:34.630Z,22.8
2017-08-02T00:49:33.841Z,22.8
2017-08-02T00:50:33.544Z,22.8
2017-08-02T00:51:32.644Z,22.8
2017-08-02T00:52:32.230Z,22.7
2017-08-02T00:53:31.345Z,22.7
2017-08-02T00:54:30.940Z,22.7
2017-08-02T00:55:30.526Z,22.7
2017-08-02T00:56:00.706Z,22.7
2017-08-02T00:56:31.725Z,22.7
2017-08-02T00:57:01.766Z,22.7
2017-08-02T00:57:32.664Z,22.7
2017-08-02T00:58:28.855Z,22.7
2017-08-02T00:59:27.946Z,22.7
2017-08-02T01:00:27.657Z,22.7
2017-08-02T01:01:26.860Z,22.7
2017-08-02T01:02:26.077Z,22.7
2017-08-02T01:03:25.788Z,22.6
2017-08-02T01:04:24.758Z,22.6
2017-08-02T01:05:24.350Z,22.6
2017-08-02T01:06:23.937Z,22.7
2017-08-02T01:07:23.032Z,22.6
2017-08-02T01:08:22.740Z,22.7
2017-08-02T01:09:21.827Z,22.6
2017-08-02T01:10:21.429Z,22.6
2017-08-02T01:11:21.024Z,22.6
2017-08-02T01:11:51.424Z,22.6
2017-08-02T01:12:21.819Z,22.6
2017-08-02T01:13:19.890Z,22.6
2017-08-02T01:14:19.114Z,22.6
2017-08-02T01:15:18.818Z,22.5
2017-08-02T01:16:18.034Z,22.5
2017-08-02T01:17:17.114Z,22.5
2017-08-02T01:18:16.921Z,22.5
2017-08-02T01:19:16.397Z,22.5
2017-08-02T01:20:15.598Z,22.6
2017-08-02T01:21:15.299Z,22.6
2017-08-02T01:22:14.281Z,22.6
2017-08-02T01:23:13.998Z,22.6
2017-08-02T01:24:13.211Z,22.6
2017-08-02T01:25:12.691Z,22.5
2017-08-02T01:26:11.890Z,22.5
2017-08-02T01:27:11.604Z,22.5
2017-08-02T01:28:11.069Z,22.5
2017-08-02T01:29:10.026Z,22.5
2017-08-02T01:30:09.740Z,22.4
2017-08-02T01:31:09.347Z,22.4
2017-08-02T01:32:08.559Z,22.3
2017-08-02T01:33:07.655Z,22.4
2017-08-02T01:34:07.253Z,22.4
2017-08-02T01:35:06.975Z,22.4
2017-08-02T01:36:06.185Z,22.4
2017-08-02T01:37:05.394Z,22.4
2017-08-02T01:38:05.109Z,22.3
2017-08-02T01:39:03.971Z,22.2
2017-08-02T01:40:03.563Z,22.2
2017-08-02T01:41:03.156Z,22.1
2017-08-02T01:42:02.756Z,22.1
2017-08-02T01:43:01.844Z,22.1
2017-08-02T01:44:01.316Z,22.1
2017-08-02T01:45:00.909Z,22
2017-08-02T01:46:00.000Z,22
2017-08-02T01:46:59.699Z,21.9
2017-08-02T01:47:59.281Z,22
2017-08-02T01:48:58.367Z,22
2017-08-02T01:49:58.100Z,22
2017-08-02T01:50:57.302Z,22
2017-08-02T01:51:27.477Z,22
2017-08-02T01:51:58.489Z,22
2017-08-02T01:52:29.008Z,22
2017-08-02T01:52:59.464Z,22
2017-08-02T01:53:29.864Z,22
2017-08-02T01:54:54.727Z,22
2017-08-02T01:55:54.430Z,22
2017-08-02T01:56:53.517Z,21.9
2017-08-02T01:57:53.232Z,22
2017-08-02T01:58:52.324Z,21.9
2017-08-02T01:59:51.790Z,21.9
2017-08-02T02:00:51.137Z,21.9
2017-08-02T02:01:50.726Z,21.9
2017-08-02T02:02:49.818Z,21.8
2017-08-02T02:03:20.476Z,21.8
2017-08-02T02:03:50.867Z,21.8
2017-08-02T02:04:21.256Z,21.8
2017-08-02T02:04:51.777Z,21.8
2017-08-02T02:05:22.296Z,21.8
2017-08-02T02:05:52.849Z,21.8
2017-08-02T02:06:23.245Z,21.8
2017-08-02T02:07:47.111Z,21.7
2017-08-02T02:08:46.201Z,21.6
2017-08-02T02:09:45.906Z,21.7
2017-08-02T02:10:45.106Z,21.7
2017-08-02T02:11:44.818Z,21.7
2017-08-02T02:12:43.902Z,21.7
2017-08-02T02:13:43.606Z,21.7
2017-08-02T02:14:42.564Z,21.7
2017-08-02T02:15:42.165Z,21.7
2017-08-02T02:16:41.881Z,21.7
2017-08-02T02:17:41.087Z,21.7
2017-08-02T02:18:40.707Z,21.8
2017-08-02T02:19:39.676Z,21.7
2017-08-02T02:20:39.385Z,21.6
2017-08-02T02:21:38.587Z,21.7
2017-08-02T02:22:37.691Z,21.7
2017-08-02T02:23:07.856Z,21.7
2017-08-02T02:23:38.633Z,21.6
2017-08-02T02:24:09.160Z,21.6
2017-08-02T02:24:39.680Z,21.6
2017-08-02T02:25:36.130Z,21.6
2017-08-02T02:26:35.726Z,21.6
2017-08-02T02:27:34.950Z,21.6
2017-08-02T02:28:34.146Z,21.6
2017-08-02T02:29:33.748Z,21.6
2017-08-02T02:30:32.949Z,21.5
2017-08-02T02:31:32.674Z,21.5
2017-08-02T02:32:31.881Z,21.5
2017-08-02T02:33:31.348Z,21.4
2017-08-02T02:34:30.568Z,21.3
2017-08-02T02:35:30.296Z,21.2
2017-08-02T02:36:29.506Z,21.2
2017-08-02T02:37:29.115Z,21.2
2017-08-02T02:38:28.323Z,21.2
2017-08-02T02:39:27.546Z,21.1
2017-08-02T02:40:27.146Z,21.1
2017-08-02T02:41:26.368Z,21.1
2017-08-02T02:42:26.088Z,21.2
2017-08-02T02:43:25.181Z,21.3
2017-08-02T02:44:24.650Z,21.1
2017-08-02T02:45:24.115Z,21.2
2017-08-02T02:45:54.645Z,21.2
2017-08-02T02:47:22.688Z,21.2
2017-08-02T02:48:22.037Z,21.3
2017-08-02T02:49:21.539Z,21.2
2017-08-02T02:50:20.896Z,21.2
2017-08-02T02:51:20.611Z,21.2
2017-08-02T02:52:19.685Z,21.2
2017-08-02T02:53:19.401Z,21.1
2017-08-02T02:54:18.495Z,21.1
2017-08-02T02:55:17.699Z,21
2017-08-02T02:56:17.421Z,21
2017-08-02T02:57:16.522Z,21
2017-08-02T02:58:16.113Z,21
2017-08-02T02:59:15.328Z,21
2017-08-02T03:00:15.036Z,20.9
2017-08-02T03:01:14.249Z,20.9
2017-08-02T03:01:44.775Z,20.9
2017-08-02T03:02:15.173Z,21
2017-08-02T03:03:12.637Z,20.8
2017-08-02T03:04:12.226Z,20.8
2017-08-02T03:05:11.939Z,20.8
2017-08-02T03:06:11.037Z,20.9
2017-08-02T03:07:10.739Z,20.8
2017-08-02T03:08:09.829Z,20.8
2017-08-02T03:09:09.415Z,20.8
2017-08-02T03:10:08.637Z,20.8
2017-08-02T03:11:07.849Z,20.9
2017-08-02T03:12:07.432Z,20.9
2017-08-02T03:13:07.030Z,20.8
2017-08-02T03:14:06.109Z,20.8
2017-08-02T03:15:05.845Z,20.8
2017-08-02T03:17:04.336Z,20.8
2017-08-02T03:18:03.925Z,20.8
2017-08-02T03:19:03.139Z,20.8
2017-08-02T03:20:02.353Z,20.8
2017-08-02T03:21:01.946Z,20.8
2017-08-02T03:22:01.035Z,20.8
2017-08-02T03:23:00.627Z,20.8
2017-08-02T03:23:59.991Z,20.8
2017-08-02T03:24:59.082Z,20.7
2017-08-02T03:25:58.808Z,20.7
2017-08-02T03:26:58.009Z,20.6
2017-08-02T03:27:57.603Z,20.6
2017-08-02T03:28:56.821Z,20.7
2017-08-02T03:29:56.027Z,20.6
2017-08-02T03:30:55.756Z,20.6
2017-08-02T03:31:26.160Z,20.6
2017-08-02T03:31:56.432Z,20.6
2017-08-02T03:32:26.822Z,20.6
2017-08-02T03:33:53.597Z,20.6
2017-08-02T03:34:53.301Z,20.5
2017-08-02T03:35:52.515Z,20.6
2017-08-02T03:36:51.363Z,20.6
2017-08-02T03:37:50.951Z,20.6
2017-08-02T03:38:50.436Z,20.6
2017-08-02T03:39:50.146Z,20.6
2017-08-02T03:40:49.351Z,20.6
2017-08-02T03:41:48.317Z,20.6
2017-08-02T03:42:48.011Z,20.6
2017-08-02T03:43:47.588Z,20.6
2017-08-02T03:44:46.678Z,20.6
2017-08-02T03:45:46.273Z,20.6
2017-08-02T03:47:45.257Z,20.6
2017-08-02T03:48:44.466Z,20.6
2017-08-02T03:49:43.558Z,20.6
2017-08-02T03:50:43.029Z,20.6
2017-08-02T03:51:42.744Z,20.7
2017-08-02T03:52:41.963Z,20.7
2017-08-02T03:53:41.163Z,20.7
2017-08-02T03:54:11.671Z,20.7
2017-08-02T03:54:42.183Z,20.6
2017-08-02T03:55:12.562Z,20.6
2017-08-02T03:56:39.447Z,20.8
2017-08-02T03:57:38.658Z,20.8
2017-08-02T03:58:38.254Z,20.8
2017-08-02T03:59:37.471Z,20.8
2017-08-02T04:00:36.673Z,20.7
2017-08-02T04:01:36.377Z,20.8
2017-08-02T04:02:35.349Z,20.7
2017-08-02T04:03:35.058Z,20.8
2017-08-02T04:04:34.274Z,20.8
2017-08-02T04:05:33.970Z,20.9
2017-08-02T04:06:33.187Z,20.9
2017-08-02T04:07:32.279Z,21
2017-08-02T04:08:31.877Z,21
2017-08-02T04:09:31.073Z,21.1
2017-08-02T04:10:30.796Z,21
2017-08-02T04:11:29.892Z,21
2017-08-02T04:12:29.611Z,21
2017-08-02T04:13:00.127Z,21
2017-08-02T04:13:30.647Z,21
2017-08-02T04:14:01.044Z,21
2017-08-02T04:15:27.441Z,21
2017-08-02T04:16:26.634Z,21
2017-08-02T04:17:26.220Z,21
2017-08-02T04:18:25.312Z,21
2017-08-02T04:19:25.013Z,21
2017-08-02T04:20:24.107Z,21
2017-08-02T04:21:23.713Z,20.9
2017-08-02T04:22:22.915Z,21
2017-08-02T04:23:22.492Z,20.9
2017-08-02T04:23:53.004Z,20.9
2017-08-02T04:24:23.279Z,20.9
2017-08-02T04:24:53.675Z,20.9
2017-08-02T04:25:24.209Z,20.9
2017-08-02T04:25:54.613Z,20.9
2017-08-02T04:27:19.987Z,20.7
2017-08-02T04:28:19.584Z,20.6
2017-08-02T04:29:18.674Z,20.7
2017-08-02T04:30:18.376Z,20.8
2017-08-02T04:31:17.584Z,20.8
2017-08-02T04:32:16.790Z,20.8
2017-08-02T04:33:16.493Z,20.8
2017-08-02T04:34:15.696Z,20.8
2017-08-02T04:35:14.909Z,20.8
2017-08-02T04:36:14.496Z,20.8
2017-08-02T04:37:13.705Z,20.8
2017-08-02T04:38:13.168Z,20.9
2017-08-02T04:39:12.388Z,20.8
2017-08-02T04:40:11.863Z,20.7
2017-08-02T04:41:11.073Z,20.7
2017-08-02T04:42:10.797Z,20.8
2017-08-02T04:43:10.027Z,20.8
2017-08-02T04:44:09.108Z,20.7
2017-08-02T04:45:08.588Z,20.8
2017-08-02T04:46:08.286Z,20.7
2017-08-02T04:47:07.490Z,20.7
2017-08-02T04:48:06.951Z,20.7
2017-08-02T04:49:06.165Z,20.6
2017-08-02T04:50:05.883Z,20.6
2017-08-02T04:51:04.854Z,20.6
2017-08-02T04:52:04.312Z,20.5
2017-08-02T04:53:03.908Z,20.5
2017-08-02T04:54:03.125Z,20.6
2017-08-02T04:55:02.847Z,20.6
2017-08-02T04:56:01.822Z,20.6
2017-08-02T04:57:01.293Z,20.6
2017-08-02T04:58:01.010Z,20.6
2017-08-02T04:58:59.979Z,20.7
2017-08-02T04:59:59.560Z,20.7
2017-08-02T05:00:58.826Z,20.8
2017-08-02T05:01:58.033Z,20.6
2017-08-02T05:03:57.139Z,20.5
2017-08-02T05:04:56.227Z,20.6
2017-08-02T05:06:55.114Z,20.5
2017-08-02T05:07:54.083Z,20.5
2017-08-02T05:08:54.053Z,20.5
2017-08-02T05:09:53.028Z,20.4
2017-08-02T05:10:52.626Z,20.4
2017-08-02T05:12:51.113Z,20.5
2017-08-02T05:13:50.708Z,20.4
2017-08-02T05:14:50.308Z,20.4
2017-08-02T05:16:49.056Z,20.5
2017-08-02T05:17:48.146Z,20.6
2017-08-02T05:18:47.850Z,20.8
2017-08-02T05:20:46.325Z,20.8
2017-08-02T05:21:16.729Z,20.8
2017-08-02T05:21:47.253Z,20.8
2017-08-02T05:22:17.779Z,20.8
2017-08-02T05:22:48.290Z,20.8
2017-08-02T05:23:18.813Z,20.8
2017-08-02T05:24:44.186Z,20.8
2017-08-02T05:25:43.161Z,20.9
2017-08-02T05:26:42.759Z,20.9
2017-08-02T05:27:42.233Z,21
2017-08-02T05:28:41.444Z,21.1
2017-08-02T05:29:40.655Z,21.1
2017-08-02T05:31:39.760Z,21.3
2017-08-02T05:32:38.944Z,21.3
2017-08-02T05:33:38.145Z,21.1
2017-08-02T05:34:37.846Z,21.1
2017-08-02T05:35:37.049Z,21.2
2017-08-02T05:36:36.767Z,21.2
2017-08-02T05:37:35.987Z,21.3
2017-08-02T05:38:35.076Z,21.3
2017-08-02T05:39:34.783Z,21.1
2017-08-02T05:40:34.130Z,21.2
2017-08-02T05:41:33.333Z,21.2
2017-08-02T05:42:32.540Z,21.3
2017-08-02T05:43:32.141Z,21.3
2017-08-02T05:44:31.338Z,21.3
2017-08-02T05:45:30.932Z,21.5
2017-08-02T05:46:30.123Z,21.5
2017-08-02T05:47:29.585Z,21.5
2017-08-02T05:48:29.306Z,21.5
2017-08-02T05:49:28.394Z,21.7
2017-08-02T05:50:27.591Z,22
2017-08-02T05:51:27.307Z,22
2017-08-02T05:52:26.400Z,22.1
2017-08-02T05:53:25.762Z,22
2017-08-02T05:54:25.120Z,22
2017-08-02T05:55:24.719Z,21.9
2017-08-02T05:56:23.907Z,21.8
2017-08-02T05:57:23.506Z,21.8
2017-08-02T05:58:22.589Z,21.8
2017-08-02T05:59:22.300Z,21.8
2017-08-02T06:00:21.280Z,22.1
2017-08-02T06:01:20.621Z,22.1
2017-08-02T06:01:50.914Z,22.1
2017-08-02T06:03:19.818Z,22.1
2017-08-02T06:03:50.330Z,22.1
2017-08-02T06:04:20.480Z,22.1
2017-08-02T06:05:18.673Z,22.6
2017-08-02T06:05:49.196Z,22.6
2017-08-02T06:12:13.922Z,22.6
2017-08-02T06:13:13.512Z,22.6
2017-08-02T06:13:44.031Z,22.6
2017-08-02T06:14:14.553Z,22.6
2017-08-02T06:14:45.069Z,22.6
2017-08-02T06:15:15.595Z,22.6
2017-08-02T06:15:46.117Z,22.6
2017-08-02T06:17:10.989Z,23.3
2017-08-02T06:18:10.453Z,23.3
2017-08-02T06:19:09.663Z,23.3
2017-08-02T06:21:08.760Z,23.3
2017-08-02T06:22:07.730Z,23.3
2017-08-02T06:24:06.833Z,23.3
2017-08-02T06:25:06.299Z,23.3
2017-08-02T06:26:05.388Z,23.3
2017-08-02T06:27:04.987Z,23.3
2017-08-02T06:28:04.189Z,23.3
2017-08-02T06:29:03.795Z,23.3
2017-08-02T06:30:02.774Z,23.3
2017-08-02T06:32:01.408Z,23.6
2017-08-02T06:33:01.001Z,23.6
2017-08-02T06:34:00.616Z,23.6
2017-08-02T06:34:59.825Z,23.6
2017-08-02T06:35:59.413Z,23.6
2017-08-02T06:36:58.495Z,23.6
2017-08-02T06:37:58.152Z,23.6
2017-08-02T06:38:57.242Z,23.6
2017-08-02T06:39:56.716Z,23.6
2017-08-02T06:40:56.185Z,23.6
2017-08-02T06:41:55.663Z,23.6
2017-08-02T06:42:55.247Z,23.6
2017-08-02T06:43:54.442Z,23.6
2017-08-02T06:44:54.025Z,23.6
2017-08-02T06:45:24.539Z,23.6
2017-08-02T06:46:52.805Z,23.6
2017-08-02T06:47:51.652Z,23.6
2017-08-02T06:48:51.145Z,23.6
2017-08-02T06:49:50.724Z,23.6
2017-08-02T06:50:50.430Z,23.6
2017-08-02T06:51:49.520Z,23.6
2017-08-02T06:52:49.229Z,23.6
2017-08-02T06:54:47.813Z,23.6
2017-08-02T06:55:47.519Z,23.6
2017-08-02T06:56:17.788Z,23.6
2017-08-02T06:56:48.305Z,23.6
2017-08-02T06:57:45.996Z,23.6
2017-08-02T06:58:45.715Z,23.6
2017-08-02T06:59:44.557Z,23.6
2017-08-02T07:00:44.154Z,23.6
2017-08-02T07:01:14.545Z,23.6
2017-08-02T07:02:42.947Z,23.6
2017-08-02T07:03:42.661Z,23.6
2017-08-02T07:04:41.866Z,23.6
2017-08-02T07:05:40.947Z,23.6
2017-08-02T07:06:40.643Z,23.6
2017-08-02T07:07:39.737Z,23.6
2017-08-02T07:08:39.326Z,23.6
2017-08-02T07:09:39.029Z,23.6
2017-08-02T07:10:38.249Z,23.6
2017-08-02T07:11:08.758Z,23.6
2017-08-02T07:11:39.281Z,23.6
2017-08-02T07:12:09.799Z,23.6
2017-08-02T07:13:36.699Z,23.6
2017-08-02T07:14:35.789Z,23.6
2017-08-02T07:15:35.496Z,23.6
2017-08-02T07:16:34.726Z,23.6
2017-08-02T07:17:33.841Z,23.6
2017-08-02T07:18:33.579Z,23.6
2017-08-02T07:19:32.665Z,23.6
2017-08-02T07:20:32.379Z,23.6
2017-08-02T07:22:30.854Z,23.6
2017-08-02T07:23:01.146Z,23.6
2017-08-02T07:23:31.672Z,23.6
2017-08-02T07:24:02.115Z,23.6
2017-08-02T07:24:32.636Z,23.6
2017-08-02T07:25:29.327Z,23.6
2017-08-02T07:26:28.529Z,23.6
2017-08-02T07:27:28.012Z,23.6
2017-08-02T07:28:27.726Z,23.6
2017-08-02T07:29:26.819Z,23.6
2017-08-02T07:30:26.435Z,23.6
2017-08-02T07:31:25.633Z,23.6
2017-08-02T07:32:25.348Z,23.6
2017-08-02T07:33:24.552Z,23.6
2017-08-02T07:34:24.260Z,23.6
2017-08-02T07:35:23.467Z,23.6
2017-08-02T07:36:23.066Z,23.6
2017-08-02T07:37:22.149Z,23.6
2017-08-02T07:38:21.730Z,23.6
2017-08-02T07:39:21.090Z,23.6
2017-08-02T07:40:20.181Z,23.6
2017-08-02T07:40:50.703Z,23.6
2017-08-02T07:41:20.883Z,23.6
2017-08-02T07:41:51.297Z,23.6
2017-08-02T07:42:21.571Z,23.6
2017-08-02T07:42:51.969Z,23.6
2017-08-02T07:44:18.340Z,23.6
2017-08-02T07:45:17.549Z,23.6
2017-08-02T07:46:16.513Z,23.6
2017-08-02T07:47:16.092Z,23.6
2017-08-02T07:48:15.678Z,23.6
2017-08-02T07:49:15.393Z,23.6
2017-08-02T07:50:14.604Z,23.6
2017-08-02T07:51:13.812Z,23.6
2017-08-02T07:51:44.326Z,23.6
2017-08-02T07:52:14.840Z,23.6
2017-08-02T07:52:45.370Z,23.6
2017-08-02T07:53:15.894Z,23.6
2017-08-02T07:53:46.422Z,23.6
2017-08-02T07:54:16.944Z,23.6
2017-08-02T07:54:47.490Z,23.6
2017-08-02T07:55:17.996Z,23.6
2017-08-02T07:55:48.392Z,23.6
2017-08-02T07:57:10.254Z,23.6
2017-08-02T07:58:09.978Z,23.6
2017-08-02T07:59:09.056Z,23.6
2017-08-02T08:00:08.772Z,23.6
2017-08-02T08:02:07.398Z,23.6
2017-08-02T08:03:06.998Z,23.6
2017-08-02T08:04:06.213Z,23.6
2017-08-02T08:04:36.605Z,23.6
2017-08-02T08:06:04.882Z,23.6
2017-08-02T08:07:04.243Z,23.6
2017-08-02T08:08:03.840Z,23.6
2017-08-02T08:09:03.553Z,23.6
2017-08-02T08:10:02.661Z,23.6
2017-08-02T08:11:02.016Z,23.6
2017-08-02T08:12:01.610Z,23.6
2017-08-02T08:14:00.589Z,23.6
2017-08-02T08:14:59.935Z,23.6
2017-08-02T08:15:59.519Z,23.6
2017-08-02T08:16:58.721Z,23.6
2017-08-02T08:17:58.454Z,23.6
2017-08-02T08:18:57.425Z,23.6
2017-08-02T08:19:57.127Z,23.6
2017-08-02T08:20:56.210Z,23.6
2017-08-02T08:21:55.929Z,23.6
2017-08-02T08:22:55.127Z,23.6
2017-08-02T08:23:54.716Z,23.6
2017-08-02T08:24:25.120Z,23.6
2017-08-02T08:24:55.637Z,23.6
2017-08-02T08:26:52.988Z,23.6
2017-08-02T08:27:52.074Z,23.6
2017-08-02T08:28:51.549Z,23.6
2017-08-02T08:29:51.171Z,23.6
2017-08-02T08:30:50.882Z,23.6
2017-08-02T08:31:49.623Z,23.6
2017-08-02T08:32:49.601Z,23.6
2017-08-02T08:33:49.080Z,23.6
2017-08-02T08:34:48.294Z,23.6
2017-08-02T08:35:18.695Z,23.6
2017-08-02T08:35:49.093Z,23.6
2017-08-02T08:36:19.481Z,23.6
2017-08-02T08:36:49.877Z,23.6
2017-08-02T08:37:46.459Z,23.6
2017-08-02T08:38:46.052Z,23.6
2017-08-02T08:39:45.140Z,24.9
2017-08-02T08:40:44.853Z,24.9
2017-08-02T08:41:44.050Z,24.9
2017-08-02T08:42:43.646Z,24.9
2017-08-02T08:43:43.363Z,24.9
2017-08-02T08:44:42.564Z,24.9
2017-08-02T08:45:41.775Z,24.9
2017-08-02T08:46:41.494Z,24.9
2017-08-02T08:47:40.702Z,24.9
2017-08-02T08:48:40.403Z,24.9
2017-08-02T08:49:39.381Z,24.9
2017-08-02T08:50:39.091Z,24.9
2017-08-02T08:51:09.602Z,24.9
2017-08-02T08:51:40.129Z,24.9
2017-08-02T08:52:10.637Z,24.9
2017-08-02T08:53:37.416Z,24.9
2017-08-02T08:54:36.507Z,24.9
2017-08-02T08:55:36.092Z,24.9
2017-08-02T08:56:35.553Z,24.9
2017-08-02T08:57:35.147Z,24.9
2017-08-02T08:58:34.362Z,24.9
2017-08-02T08:59:33.940Z,24.9
2017-08-02T09:00:33.133Z,24.9
2017-08-02T09:02:31.986Z,24.9
2017-08-02T09:03:31.700Z,24.9
2017-08-02T09:06:30.075Z,24.9
2017-08-02T09:07:29.281Z,24.9
2017-08-02T09:08:28.994Z,24.9
2017-08-02T09:09:28.079Z,24.9
2017-08-02T09:10:27.781Z,24.9
2017-08-02T09:11:27.147Z,24.9
2017-08-02T09:12:26.352Z,24.9
2017-08-02T09:13:25.958Z,24.9
2017-08-02T09:14:25.668Z,24.9
2017-08-02T09:15:24.523Z,24.9
2017-08-02T09:16:24.230Z,24.9
2017-08-02T09:18:23.219Z,24.9
2017-08-02T09:24:19.656Z,24.9
2017-08-02T09:27:18.142Z,24.9
2017-08-02T09:29:16.930Z,24.9
2017-08-02T09:31:16.239Z,24.9
2017-08-02T09:31:46.254Z,24.9
2017-08-02T09:32:16.773Z,24.9
2017-08-02T09:34:14.138Z,24.9
2017-08-02T09:34:44.651Z,24.9
2017-08-02T09:37:12.329Z,24.9
2017-08-02T09:39:11.438Z,24.9
2017-08-02T09:41:10.423Z,24.9
2017-08-02T09:42:09.272Z,26.2
2017-08-02T09:44:08.379Z,26.2
2017-08-02T09:44:38.772Z,26.2
2017-08-02T09:45:09.190Z,26.2
2017-08-02T09:45:39.698Z,26.2
2017-08-02T09:48:06.483Z,26.2
2017-08-02T09:52:04.238Z,26.3
2017-08-02T09:54:02.718Z,26.2
2017-08-02T09:55:02.418Z,26.2
2017-08-02T09:56:02.136Z,26.2
2017-08-02T09:58:00.611Z,26.1
2017-08-02T09:59:59.588Z,26.1
2017-08-02T10:00:59.286Z,26.2
2017-08-02T10:01:58.253Z,26.2
2017-08-02T10:02:57.944Z,26.2
2017-08-02T10:03:28.358Z,26.2
2017-08-02T10:06:55.918Z,26.5
2017-08-02T10:07:55.624Z,26.4
2017-08-02T10:08:54.711Z,26.4
2017-08-02T10:11:53.084Z,26.5
2017-08-02T10:12:52.719Z,26.5
2017-08-02T10:13:51.801Z,26.5
2017-08-02T10:14:22.079Z,26.5
2017-08-02T10:15:50.994Z,26.5
2017-08-02T10:16:21.266Z,26.5
2017-08-02T10:16:51.552Z,26.5
2017-08-02T10:17:21.957Z,26.5
2017-08-02T10:18:49.106Z,26.5
2017-08-02T10:20:48.194Z,26.6
2017-08-02T10:21:47.781Z,26.8
2017-08-02T10:22:47.487Z,26.8
2017-08-02T10:24:46.349Z,26.8
2017-08-02T10:25:16.863Z,26.8
2017-08-02T10:25:47.260Z,26.8
2017-08-02T10:26:45.460Z,26.6
2017-08-02T10:27:44.419Z,26.6
2017-08-02T10:29:43.514Z,26.5
2017-08-02T10:31:42.616Z,26.5
2017-08-02T10:32:41.809Z,26.5
2017-08-02T10:33:41.287Z,26.5
2017-08-02T10:35:40.158Z,26.5
2017-08-02T10:36:39.515Z,26.3
2017-08-02T10:37:39.612Z,26.3
2017-08-02T10:38:38.818Z,26.3
2017-08-02T10:39:38.527Z,26.2
2017-08-02T10:40:37.748Z,26.2
2017-08-02T10:43:36.245Z,26.3
2017-08-02T10:44:35.612Z,26.4
2017-08-02T10:49:33.148Z,26.5
2017-08-02T10:50:32.859Z,26.8
2017-08-02T10:51:32.316Z,26.8
2017-08-02T10:52:31.399Z,26.9
2017-08-02T10:56:29.785Z,27
2017-08-02T10:59:28.284Z,27.1
2017-08-02T11:00:27.485Z,27
2017-08-02T11:01:27.190Z,27
2017-08-02T11:02:26.283Z,26.9
2017-08-02T11:03:25.860Z,26.9
2017-08-02T11:04:25.476Z,26.9
2017-08-02T11:05:25.177Z,26.9
2017-08-02T11:06:24.143Z,26.9
2017-08-02T11:07:23.996Z,26.9
2017-08-02T11:08:23.580Z,26.9
2017-08-02T11:09:23.279Z,27
2017-08-02T11:10:22.490Z,26.9
2017-08-02T11:11:22.195Z,26.9
2017-08-02T11:13:21.192Z,26.9
2017-08-02T11:14:20.794Z,26.8
2017-08-02T11:15:19.998Z,26.8
2017-08-02T11:16:19.586Z,26.8
2017-08-02T11:17:19.053Z,26.7
2017-08-02T11:30:12.474Z,26.8
2017-08-02T11:32:11.464Z,26.8
2017-08-02T11:35:09.979Z,26.9
2017-08-02T11:44:05.593Z,26.6
2017-08-02T11:47:04.062Z,26.6
2017-08-02T11:52:01.609Z,26.6
2017-08-02T11:53:01.328Z,26.6
2017-08-02T11:54:59.815Z,26.6
2017-08-02T11:56:59.179Z,26.6
2017-08-02T11:57:29.692Z,26.6
2017-08-02T11:58:00.094Z,26.6
2017-08-02T11:58:30.486Z,26.6
2017-08-02T11:59:00.760Z,26.7
2017-08-02T11:59:57.852Z,26.7
2017-08-02T12:00:57.075Z,26.8
2017-08-02T12:01:56.667Z,26.8
2017-08-02T12:02:56.253Z,26.9
2017-08-02T12:03:55.954Z,26.9
2017-08-02T12:05:54.557Z,26.9
2017-08-02T12:06:54.271Z,26.9
2017-08-02T12:08:53.259Z,27
2017-08-02T12:09:52.850Z,27
2017-08-02T12:10:52.464Z,26.9
2017-08-02T12:11:51.666Z,26.9
2017-08-02T12:12:51.366Z,27
2017-08-02T12:13:50.827Z,27
2017-08-02T12:14:50.421Z,27
2017-08-02T12:15:50.004Z,27.1
2017-08-02T12:16:49.210Z,27.1
2017-08-02T12:17:48.808Z,27.1
2017-08-02T12:18:48.501Z,27.1
2017-08-02T12:19:18.899Z,27.1
2017-08-02T12:19:49.297Z,27.1
2017-08-02T12:21:47.162Z,27.1
2017-08-02T12:24:45.536Z,27.1
2017-08-02T12:25:44.999Z,27.1
2017-08-02T12:26:44.695Z,27.1
2017-08-02T12:27:44.298Z,27.1
2017-08-02T12:29:43.287Z,27.3
2017-08-02T12:30:42.649Z,27.3
2017-08-02T12:31:42.127Z,27.3
2017-08-02T12:32:41.831Z,27.3
2017-08-02T12:33:41.548Z,27.3
2017-08-02T12:34:40.754Z,27.3
2017-08-02T12:35:40.465Z,27.3
2017-08-02T12:36:39.667Z,27.3
2017-08-02T12:37:39.259Z,27.3
2017-08-02T12:38:38.852Z,27.3
2017-08-02T12:39:09.378Z,27.3
2017-08-02T12:39:39.896Z,27.3
2017-08-02T12:40:38.090Z,27.3
2017-08-02T12:41:37.790Z,27.3
2017-08-02T12:42:36.764Z,27.3
2017-08-02T12:43:36.368Z,27.3
2017-08-02T12:44:36.090Z,27.3
2017-08-02T12:45:35.816Z,27.3
2017-08-02T12:46:35.020Z,27.3
2017-08-02T12:47:34.251Z,27.3
2017-08-02T12:48:34.492Z,27.3
2017-08-02T12:49:33.591Z,27.2
2017-08-02T12:50:33.305Z,27.2
2017-08-02T12:51:32.891Z,27.1
2017-08-02T12:52:32.375Z,27.1
2017-08-02T12:53:32.084Z,27.1
2017-08-02T12:54:31.783Z,27.1
2017-08-02T12:55:02.321Z,27.1
2017-08-02T12:55:32.844Z,27.1
2017-08-02T12:56:03.359Z,27.1
2017-08-02T12:56:33.880Z,27.1
2017-08-02T12:57:29.827Z,27.2
2017-08-02T12:58:29.559Z,27.2
2017-08-02T12:59:29.141Z,27.2
2017-08-02T13:00:28.872Z,27.2
2017-08-02T13:01:28.468Z,27.3
2017-08-02T13:02:27.665Z,27.3
2017-08-02T13:04:26.773Z,27.3
2017-08-02T13:05:26.356Z,27.3
2017-08-02T13:06:26.060Z,27.3
2017-08-02T13:07:25.779Z,27.3
2017-08-02T13:08:24.864Z,27.3
2017-08-02T13:09:24.587Z,27.2
2017-08-02T13:10:24.304Z,27.2
2017-08-02T13:11:24.006Z,27.1
2017-08-02T13:12:23.617Z,27.1
2017-08-02T13:13:22.700Z,27
2017-08-02T13:14:22.412Z,27
2017-08-02T13:15:22.009Z,27
2017-08-02T13:16:21.606Z,27
2017-08-02T13:17:21.204Z,27
2017-08-02T13:18:20.933Z,27
2017-08-02T13:19:20.025Z,27
2017-08-02T13:20:19.619Z,27
2017-08-02T13:22:18.718Z,27.1
2017-08-02T13:23:18.303Z,27.1
2017-08-02T13:25:17.405Z,27.3
2017-08-02T13:28:16.164Z,27.3
2017-08-02T13:29:15.934Z,27.3
2017-08-02T13:30:15.149Z,27.4
2017-08-02T13:31:14.740Z,27.5
2017-08-02T13:32:14.487Z,27.4
2017-08-02T13:33:14.210Z,27.3
2017-08-02T13:34:13.416Z,27.3
2017-08-02T13:35:12.869Z,27.3
2017-08-02T13:36:12.458Z,27.4
2017-08-02T13:37:12.042Z,27.4
2017-08-02T13:38:11.749Z,27.5
2017-08-02T13:39:11.343Z,27.5
2017-08-02T13:40:11.047Z,27.5
2017-08-02T13:41:10.230Z,27.5
2017-08-02T13:42:09.824Z,27.5
2017-08-02T13:43:09.528Z,27.4
2017-08-02T13:44:09.122Z,27.4
2017-08-02T13:45:08.843Z,27.3
2017-08-02T13:46:08.063Z,27.3
2017-08-02T13:46:38.456Z,27.3
2017-08-02T13:47:08.860Z,27.3
2017-08-02T13:47:39.261Z,27.3
2017-08-02T13:48:09.654Z,27.3
2017-08-02T13:48:40.050Z,27.3
2017-08-02T13:49:10.565Z,27.3
2017-08-02T13:49:41.067Z,27.3
2017-08-02T13:50:11.598Z,27.3
2017-08-02T13:50:41.997Z,27.3
2017-08-02T13:52:05.620Z,27.4
2017-08-02T13:53:05.213Z,27.4
2017-08-02T13:54:04.809Z,27.4
2017-08-02T13:55:04.517Z,27.3
2017-08-02T13:56:04.099Z,27.3
2017-08-02T13:57:03.182Z,27.3
2017-08-02T13:58:02.780Z,27.3
2017-08-02T13:59:02.495Z,27.3
2017-08-02T14:00:02.102Z,27.3
2017-08-02T14:00:32.274Z,27.3
2017-08-02T14:02:01.053Z,27.2
2017-08-02T14:03:00.781Z,27.3
2017-08-02T14:04:00.486Z,27.3
2017-08-02T14:05:59.582Z,27.2
2017-08-02T14:06:58.797Z,27.2
2017-08-02T14:12:56.525Z,27.2
2017-08-02T14:13:55.732Z,27.3
2017-08-02T14:15:54.833Z,27.4
2017-08-02T14:16:54.424Z,27.4
2017-08-02T14:17:54.020Z,27.4
2017-08-02T14:18:53.606Z,27.5
2017-08-02T14:19:53.215Z,27.5
2017-08-02T14:20:23.602Z,27.5